Lucedale, Mississippi
Current Conditions -  °F | °C
As of 2:56 PM on Saturday 25 Oct 2014 (Local Time) from KMOB Reporting Station
Clear Clear  
Wind Chill: 79°   Ceiling: Unl
Heat Index: 79°   Visibility: 10mi
Dew Point: 53°   Wind: 12mph
Humidity: 40%   Direction: 360°N
Pressure: 30.06"   Gusts: NA
Location:  30.93°N, 88.59°W
Report Text: KMOB 251956Z 36010KT 10SM CLR 26/12 A3006 RMK AO2 SLP178 T02610117
Loading
Personal Weather Stations






























Interactive Weather Map
Tropical Storm Tracking
New forecast layout! Learn more

10-Day Weather Forecast

Advertisements
Track Severe Weather on mobile